Weather

Rainfall Maps have ended for the season and will begin again on June 1st.

*Note: Some stations are located near irrigated fields and may also report irrigation

Forrest Carberry Carberry North Wawanesa Glenboro Glenora Treherne Gladstone Portage East High Bluff Elm Creek Carman Winkler Kuhl Farm Morris St.Adolphe Steinbach Selkirk Macdonald Shilo Rivers Somerset Reinland Altona Starbuck St.Pierre Winkler




Altona - Historical Weather Data
Date Max Temp (°C) Min Temp (°C) Avg Temp (°C) Rain (mm) Avg RH (%) Solar Radiation (W/m2)
4/25/2018 19.7 0.3 10.9 0.0 48.0 22.3
4/24/2018 12.2 -2.5 5.6 0.0 58.0 27.4
4/23/2018 16.9 2.4 9.8 0.0 59.0 25.1
4/22/2018 17.2 3.0 10.8 0.0 66.0 16.2
4/21/2018 18.3 0.4 9.2 0.0 72.0 21.6
4/20/2018 16.0 -0.4 7.6 0.0 71.0 23.4
4/19/2018 15.0 -1.4 6.6 0.0 67.0 23.7
4/18/2018 13.2 -1.6 5.4 0.0 52.0 24.7
4/17/2018 11.6 -4.3 3.2 0.0 58.0 23.1
4/16/2018 8.8 -6.0 1.2 0.0 55.0 25.9
4/15/2018 5.6 -5.1 -0.5 0.0 52.0 24.7
4/14/2018 4.1 -6.9 -1.6 0.0 53.0 20.3
4/13/2018 0.4 -8.0 -3.8 0.0 57.0 24.6
4/12/2018 1.9 -3.8 -1.3 2.6 79.0 23.5
4/11/2018 4.9 -4.5 0.0 1.1 75.0 18.1
4/10/2018 3.3 -4.6 -0.3 0.0 77.0 11.2
4/9/2018 2.3 -10.1 -3.6 0.0 68.0 20.7
4/8/2018 0.1 -12.0 -5.8 0.0 56.0 20.8
4/7/2018 -3.7 -12.8 -8.0 0.0 63.0 24.2
4/6/2018 -4.4 -16.2 -10.3 0.0 67.0 23.2
4/5/2018 -2.7 -11.3 -6.1 0.1 66.0 19.3
4/4/2018 -0.9 -10.2 -4.7 0.0 69.0 17.5
4/3/2018 -2.7 -16.6 -10.5 0.0 59.0 21.8
4/2/2018 -6.2 -15.7 -12.1 0.0 62.0 23.0
4/1/2018 -0.5 -10.5 -5.8 0.0 60.0 22.4
3/31/2018 -7.4 -13.8 -10.2 0.0 63.0 22.5
3/30/2018 -7.3 -16.3 -11.6 0.0 61.0 20.6
3/29/2018 -4.8 -13.6 -7.8 0.0 72.0 18.5
3/28/2018 3.8 -6.3 -3.3 0.8 83.0 16.9
3/27/2018 6.5 -3.9 1.3 0.0 89.0 20.1
3/26/2018 1.5 -3.2 -0.1 0.0 99.0 8.6
3/25/2018 0.9 -1.0 0.1 0.0 90.0 8.4
3/24/2018 1.0 -3.7 -1.6 0.2 87.0 13.0
3/23/2018 3.0 -6.2 -0.3 0.0 77.0 13.0
3/22/2018 2.1 -2.3 0.0 0.0 98.0 14.6
3/21/2018 1.3 -5.6 -1.5 0.7 98.0 11.3
3/20/2018 0.7 -6.4 -4.0 0.2 91.0 13.6
3/19/2018 -0.3 -5.8 -2.6 0.0 86.0 13.8
3/18/2018 1.5 -1.5 0.1 0.0 91.0 11.1
3/17/2018 2.0 -15.5 -6.6 0.0 76.0 19.8
3/16/2018 -0.2 -18.4 -9.8 0.0 73.0 19.3
3/15/2018 -3.1 -17.6 -10.8 0.0 75.0 19.2
3/14/2018 -2.1 -10.5 -5.3 0.0 82.0 18.9
3/13/2018 0.5 -17.1 -7.8 0.0 79.0 17.3
3/12/2018 -2.6 -14.2 -6.7 0.0 76.0 18.3
3/11/2018 0.6 -8.5 -3.4 0.0 79.0 17.6
3/10/2018 -1.4 -10.7 -4.7 0.0 84.0 10.4
3/9/2018 -5.4 -18.7 -12.7 0.0 88.0 16.1
3/8/2018 -4.5 -18.5 -12.0 0.0 87.0 15.4
3/7/2018 -7.0 -17.7 -11.5 0.0 80.0 16.8
3/6/2018 -1.6 -14.8 -8.4 0.0 72.0 16.7
3/5/2018 0.4 -2.6 -1.0 11.4 97.0 6.0
3/4/2018 4.0 0.0 2.1 10.1 78.0 6.0
3/3/2018 5.5 -7.6 -0.2 0.0 71.0 12.8
3/2/2018 -2.1 -12.4 -6.5 0.0 94.0 7.2
3/1/2018 4.3 -12.0 -3.3 0.0 81.0 15.1
2/28/2018 2.1 -12.7 -5.4 0.0 82.0 14.8
2/27/2018 -1.8 -14.1 -7.6 0.0 81.0 14.6
2/26/2018 2.3 -15.4 -7.2 0.0 83.0 12.9
2/25/2018 -1.4 -12.7 -7.8 0.3 85.0 13.0
2/24/2018 -7.0 -17.2 -11.9 0.3 82.0 12.4
2/23/2018 -6.4 -17.1 -12.5 0.0 76.0 13.3
2/22/2018 -8.6 -21.5 -15.7 0.0 79.0 13.7
2/21/2018 -11.4 -22.2 -16.8 0.0 71.0 13.1
2/20/2018 -11.6 -18.2 -14.9 0.5 73.0 11.1
2/19/2018 -14.7 -22.5 -17.8 0.0 66.0 10.2
2/18/2018 -10.8 -17.5 -14.2 0.3 75.0 8.6
2/17/2018 -6.6 -15.4 -10.9 0.0 69.0 11.7
2/16/2018 -6.3 -18.6 -12.5 0.0 71.0 8.6
2/15/2018 -5.4 -22.0 -17.9 0.0 73.0 10.6
2/14/2018 3.7 -9.3 -3.2 0.1 79.0 9.5
2/13/2018 -3.8 -19.0 -10.0 0.0 72.0 9.9
2/12/2018 -16.4 -28.3 -22.4 0.0 67.0 11.6
2/11/2018 -13.4 -25.5 -17.1 0.0 76.0 9.0
2/10/2018 -12.2 -22.2 -16.5 0.0 70.0 8.9
2/9/2018 -12.5 -26.8 -19.6 0.0 69.0 11.0
2/8/2018 -12.9 -23.2 -20.2 0.0 72.0 10.2
2/7/2018 -13.8 -25.9 -20.3 0.0 74.0 10.6
2/6/2018 -14.5 -25.6 -19.9 0.0 74.0 7.3
2/5/2018 -14.3 -25.4 -19.1 0.0 72.0 8.5
2/4/2018 -14.6 -27.9 -20.9 0.0 67.0 8.6
2/3/2018 -20.3 -27.7 -22.5 0.5 78.0 6.5
2/2/2018 -15.2 -23.6 -18.9 0.7 76.0 4.3
2/1/2018 -17.0 -24.1 -21.2 0.0 72.0 8.6
1/31/2018 -11.2 -20.1 -16.4 0.0 67.0 7.3
1/30/2018 -0.4 -20.1 -11.3 1.3 81.0 3.4
1/29/2018 -16.4 -21.8 -18.8 0.0 78.0 7.1
1/28/2018 -18.9 -22.4 -20.4 0.0 78.0 7.1
1/27/2018 -7.1 -19.7 -13.8 0.1 81.0 4.8
1/26/2018 -1.1 -7.3 -3.4 0.0 91.0 1.6
1/25/2018 -3.9 -9.6 -5.6 0.0 96.0 2.0
1/24/2018 -4.0 -9.6 -6.8 0.0 95.0 1.8
1/23/2018 -4.2 -6.9 -5.7 0.0 88.0 1.3
1/22/2018 -4.0 -6.9 -5.6 0.0 86.0 1.9
1/21/2018 -4.5 -7.6 -6.4 0.0 92.0 1.6
1/20/2018 2.2 -9.1 -3.3 0.0 90.0 6.7
1/19/2018 4.4 -4.5 1.3 0.0 82.0 4.5
1/18/2018 3.6 -6.0 -3.8 0.0 79.0 4.4
1/17/2018 2.4 -14.8 -6.0 0.0 71.0 7.2
1/16/2018 -11.4 -28.5 -19.0 0.0 68.0 5.5
1/15/2018 -22.4 -26.8 -24.9 0.6 76.0 5.3
1/14/2018 -12.4 -22.6 -17.7 1.3 82.0 4.0
1/13/2018 -18.9 -29.4 -24.4 0.0 72.0 7.1
1/12/2018 -19.7 -29.1 -24.8 0.0 69.0 7.0
1/11/2018 -19.4 -26.6 -23.1 1.8 76.0 5.0
1/10/2018 -1.2 -19.6 -10.7 1.7 87.0 1.8
1/9/2018 0.6 -12.3 -4.2 0.0 84.0 3.9
1/8/2018 -3.1 -12.3 -7.9 0.0 76.0 6.1
1/7/2018 0.8 -8.1 -4.0 0.0 85.0 3.0
1/6/2018 -7.9 -23.4 -15.6 0.1 81.0 2.0
1/5/2018 -19.2 -29.8 -24.8 0.0 75.0 5.2
1/4/2018 -19.3 -27.3 -22.9 0.0 74.0 5.9
1/3/2018 -20.4 -23.4 -21.6 0.0 73.0 5.6
1/2/2018 -11.9 -22.7 -17.3 0.0 73.0 4.2
1/1/2018 -17.3 -27.0 -22.5 0.0 68.0 6.2
12/31/2017 -23.5 -31.8 -27.8 0.0 70.0 6.1
12/30/2017 -27.8 -32.8 -30.3 0.0 69.0 5.6
12/29/2017 -23.9 -28.6 -26.0 0.0 73.0 5.5
12/28/2017 -16.6 -26.7 -20.7 0.4 77.0 5.2
12/27/2017 -21.2 -30.8 -25.9 0.0 70.0 5.7
12/26/2017 -23.8 -28.5 -26.2 0.0 68.0 5.8
12/25/2017 -24.4 -27.8 -26.1 0.0 67.0 5.3
12/24/2017 -19.1 -25.7 -22.1 0.0 72.0 5.5
12/23/2017 -6.3 -22.2 -14.1 0.0 76.0 3.5
12/22/2017 -7.9 -16.4 -11.0 0.0 80.0 3.0
12/21/2017 -15.5 -25.9 -19.8 0.0 80.0 6.1
12/20/2017 -15.1 -20.0 -16.8 0.2 81.0 2.6
12/19/2017 -1.3 -18.2 -9.1 0.0 72.0 3.4
12/18/2017 2.1 -3.2 -0.2 0.0 83.0 2.9
12/17/2017 -2.0 -13.0 -8.5 0.0 88.0 5.5
12/16/2017 -5.2 -12.9 -9.4 0.3 92.0 3.6
12/15/2017 -7.5 -11.0 -9.6 1.1 89.0 2.6
12/14/2017 -6.6 -12.3 -8.2 0.0 90.0 2.7
12/13/2017 -3.3 -11.6 -6.4 0.2 89.0 2.2
12/12/2017 0.6 -14.1 -5.7 0.0 94.0 3.4
12/11/2017 2.3 -16.4 -8.7 0.3 88.0 5.6
12/10/2017 -2.6 -9.1 -5.6 1.2 90.0 3.7
12/9/2017 -1.0 -9.5 -5.9 0.0 79.0 3.0
12/8/2017 2.1 -9.6 -5.2 0.0 84.0 4.3
12/7/2017 -1.7 -16.5 -7.4 0.0 80.0 3.0
12/6/2017 -9.6 -15.4 -12.6 0.0 73.0 4.6
12/5/2017 -9.2 -14.3 -11.9 0.0 74.0 5.2
12/4/2017 -0.2 -11.6 -4.5 1.3 91.0 1.5
12/3/2017 0.9 -5.9 -2.3 0.0 91.0 2.6
12/2/2017 3.9 -8.3 -2.1 0.0 91.0 5.9
12/1/2017 1.5 -5.3 -1.4 0.0 89.0 3.5
11/30/2017 3.7 -2.5 0.6 0.0 84.0 4.8
11/29/2017 5.2 -6.2 -0.2 1.5 77.0 3.1
11/28/2017 3.3 -10.0 -2.7 0.0 69.0 4.6
11/27/2017 6.4 -4.3 1.8 0.3 86.0 2.2
11/26/2017 -0.2 -6.6 -4.5 0.0 87.0 2.6
11/25/2017 -2.6 -11.9 -6.9 0.0 83.0 5.3
11/24/2017 7.0 -6.2 2.3 0.0 83.0 6.3
11/23/2017 6.7 -11.2 -3.1 0.0 93.0 3.3
11/22/2017 -5.6 -14.5 -9.9 0.4 88.0 2.8
11/21/2017 -6.4 -12.5 -9.7 0.7 77.0 6.8
11/20/2017 5.7 -8.8 -2.6 0.0 82.0 2.8
11/19/2017 -3.6 -12.9 -8.4 0.0 85.0 6.7
11/18/2017 -7.7 -12.3 -9.5 0.0 73.0 6.9
11/17/2017 -0.3 -12.9 -5.7 0.8 81.0 6.6
11/16/2017 -0.7 -6.9 -4.1 0.0 87.0 2.0
11/15/2017 -2.1 -8.3 -6.0 0.0 87.0 3.8
11/14/2017 2.0 -6.4 -1.9 0.0 97.0 5.5
11/13/2017 1.1 -9.3 -5.1 0.0 92.0 7.7
11/12/2017 -3.2 -9.8 -5.4 0.0 84.0 6.1
11/11/2017 -1.8 -7.4 -5.1 0.0 86.0 5.8
11/10/2017 -7.0 -20.9 -12.5 0.0 80.0 4.1
11/9/2017 -9.4 -22.8 -17.1 0.0 77.0 9.2
11/8/2017 -8.3 -16.0 -10.5 0.5 85.0 5.2
11/7/2017 -5.8 -17.6 -10.8 0.0 78.0 9.1
11/6/2017 -6.6 -15.4 -11.2 0.0 78.0 9.3
11/5/2017 -2.5 -13.6 -6.9 0.0 81.0 8.0
11/4/2017 0.3 -4.1 -2.2 2.8 96.0 3.4
11/3/2017 -2.7 -10.6 -5.8 0.0 90.0 6.4
11/2/2017 -1.4 -5.6 -2.7 0.0 91.0 6.3
11/1/2017 0.4 -4.1 -1.7 2.4 93.0 3.3
10/31/2017 -0.6 -7.9 -4.1 0.0 77.0 6.3